Atlantic - Newfoundland: Past 24 Hour Conditions

 

Blanc-Sablon Airport

04:00 PM AST 26 March 2017
Disclaimer

This table is a summary of hourly weather conditions for the past 24 hours.
Please note that these observations might not always be representative of weather conditions over their associated marine area.

Date / Time
(AST)
Wind(knots) Conditions Visibility(km) Pressure(kPa) Air tempC) Relative humidity(%) Dew pointC) Wind Chill
26 March 2017
16:00 WNW 14 gust 20 Partly Cloudy 24 101.7 -9 43 -19 -17
15:00 W 13 Mainly Sunny 24 101.7 -9 43 -20 -17
14:00 W 15 gust 20 Mainly Sunny 24 101.6 -10 43 -20 -19
13:00 W 16 Mainly Sunny 24 101.6 -11 44 -21 -20
12:00 W 13 gust 19 Mainly Sunny 24 101.7 -12 46 -22 -21
11:00 W 16 Mainly Sunny 24 101.7 -13 49 -22 -24
10:00 WNW 15 gust 21 Mainly Sunny 24 101.7 -14 49 -23 -25
9:00 WNW 12 gust 19 Mainly Sunny 24 101.7 -15 51 -23 -25
8:00 WNW 10 Mainly Sunny 24 101.7 -16 57 -23 -25
7:00 W 12 Mainly Sunny 24 101.8 -17 58 -23 -27
6:00 W 13 Sunny 24 101.7 -17 59 -23 -28
5:00 W 8 Clear 24 101.7 -17 60 -23 -26
4:00 WNW 6 Clear 24 101.6 -17 57 -24 -25
3:00 WNW 7 Clear 24 101.6 -17 55 -24 -25
2:00 WNW 10 gust 19 Clear 24 101.6 -16 52 -24 -25
1:00 WNW 12 Clear 24 101.6 -16 51 -24 -26
0:00 WNW 10 Clear 24 101.6 -15 50 -24 -24
25 March 2017
23:00 NW 12 gust 19 Clear 24 101.6 -15 49 -23 -24
22:00 NNW 7 Clear 24 101.6 -15 54 -23 -23
21:00 N 8 Clear 24 101.6 -14 53 -22 -22
20:00 NW 10 Clear 24 101.5 -12 44 -22 -20
19:00 NW 11 Clear 24 101.3 -11 46 -20 -19
18:00 NW 11 gust 19 Mainly Sunny 24 101.2 -9 45 -19 -17
17:00 WNW 14 gust 20 Mainly Sunny 24 101.1 -7 42 -18 -15
16:00 WNW 16 gust 23 Mainly Sunny 24 101.0 -6 41 -17 -14

Zoom-in to make a selection

Map of Atlantic - Newfoundland marine weather areas Southwestern Grand Banks - 44138 Banquereau - 44139 Tail of the Bank - 44140 Nickerson Bank - 44251 Northeast Burgeo Bank - 44255 Blanc-Sablon Airport Cap Whittle Chevery Natashquan Airport Heath Point Miscou Island Grand Étang Ingonish Beach North Mountain St.Paul Island J.A. Douglas McCurdy Sydney Airport Charlottetown Airport East Point North Cape Argentia Bonavista Burgeo Cape Race Corner Brook Daniel's Harbour Englee Ferolle Point La Scie Port aux Basques Rocky Harbour Sagona Island St. Anthony Airport St. John's Int'l Airport St. Lawrence Stephenville Airport Twillingate Winterland Wreckhouse Cartwright Airport Mary's Harbour Grates Cove Pool's Island Marticot Island Long Pond Eskasoni (First Nations) Îles de la Madeleine Airport
Legend:
buoy Buoy
land station Land Station

Atlantic - Newfoundland Area

Another Region

What we are doing

Date modified: